sensor_id;sensor_type;location;lat;lon;timestamp;P1;durP1;ratioP1;P2;durP2;ratioP2
7829;SDS011;3960;51.86894000;5.39848000;2022-08-21T00:01:26;9.35;;;4.82;;
7829;SDS011;3960;51.86894000;5.39848000;2022-08-21T00:03:54;7.75;;;5.03;;
7829;SDS011;3960;51.86894000;5.39848000;2022-08-21T00:06:20;11.98;;;6.20;;
7829;SDS011;3960;51.86894000;5.39848000;2022-08-21T00:08:45;9.48;;;5.00;;
7829;SDS011;3960;51.86894000;5.39848000;2022-08-21T00:11:11;11.65;;;5.40;;
7829;SDS011;3960;51.86894000;5.39848000;2022-08-21T00:13:36;8.93;;;4.80;;
7829;SDS011;3960;51.86894000;5.39848000;2022-08-21T00:16:02;8.95;;;5.25;;
7829;SDS011;3960;51.86894000;5.39848000;2022-08-21T00:18:28;10.13;;;5.03;;
7829;SDS011;3960;51.86894000;5.39848000;2022-08-21T00:20:53;10.23;;;5.28;;
7829;SDS011;3960;51.86894000;5.39848000;2022-08-21T00:23:19;8.77;;;4.97;;
7829;SDS011;3960;51.86894000;5.39848000;2022-08-21T00:25:44;9.00;;;5.05;;
7829;SDS011;3960;51.86894000;5.39848000;2022-08-21T00:28:10;8.90;;;5.07;;
7829;SDS011;3960;51.86894000;5.39848000;2022-08-21T00:30:36;5.93;;;4.60;;
7829;SDS011;3960;51.86894000;5.39848000;2022-08-21T00:33:02;9.40;;;4.95;;
7829;SDS011;3960;51.86894000;5.39848000;2022-08-21T00:35:33;7.65;;;4.68;;
7829;SDS011;3960;51.86894000;5.39848000;2022-08-21T00:38:05;10.95;;;5.43;;
7829;SDS011;3960;51.86894000;5.39848000;2022-08-21T00:40:38;13.20;;;5.47;;
7829;SDS011;3960;51.86894000;5.39848000;2022-08-21T00:43:08;9.48;;;4.93;;
7829;SDS011;3960;51.86894000;5.39848000;2022-08-21T00:45:35;10.65;;;4.93;;
7829;SDS011;3960;51.86894000;5.39848000;2022-08-21T00:48:01;7.45;;;5.20;;
7829;SDS011;3960;51.86894000;5.39848000;2022-08-21T00:50:28;7.53;;;4.50;;
7829;SDS011;3960;51.86894000;5.39848000;2022-08-21T00:52:57;10.23;;;5.00;;
7829;SDS011;3960;51.86894000;5.39848000;2022-08-21T00:55:23;8.38;;;4.50;;
7829;SDS011;3960;51.86894000;5.39848000;2022-08-21T00:57:52;9.65;;;4.88;;
7829;SDS011;3960;51.86894000;5.39848000;2022-08-21T01:00:25;12.85;;;4.80;;
7829;SDS011;3960;51.86894000;5.39848000;2022-08-21T01:02:56;8.10;;;4.53;;
7829;SDS011;3960;51.86894000;5.39848000;2022-08-21T01:05:22;8.38;;;4.07;;
7829;SDS011;3960;51.86894000;5.39848000;2022-08-21T01:07:49;9.50;;;4.30;;
7829;SDS011;3960;51.86894000;5.39848000;2022-08-21T01:10:14;7.40;;;4.35;;
7829;SDS011;3960;51.86894000;5.39848000;2022-08-21T01:12:41;8.25;;;4.45;;
7829;SDS011;3960;51.86894000;5.39848000;2022-08-21T01:15:06;7.55;;;4.40;;
7829;SDS011;3960;51.86894000;5.39848000;2022-08-21T01:17:32;7.82;;;4.28;;
7829;SDS011;3960;51.86894000;5.39848000;2022-08-21T01:19:58;6.97;;;4.32;;
7829;SDS011;3960;51.86894000;5.39848000;2022-08-21T01:22:24;10.05;;;4.38;;
7829;SDS011;3960;51.86894000;5.39848000;2022-08-21T01:24:51;7.05;;;4.20;;
7829;SDS011;3960;51.86894000;5.39848000;2022-08-21T01:27:16;9.13;;;4.13;;
7829;SDS011;3960;51.86894000;5.39848000;2022-08-21T01:29:43;6.05;;;4.60;;
7829;SDS011;3960;51.86894000;5.39848000;2022-08-21T01:32:16;6.95;;;4.68;;
7829;SDS011;3960;51.86894000;5.39848000;2022-08-21T01:34:44;8.35;;;4.55;;
7829;SDS011;3960;51.86894000;5.39848000;2022-08-21T01:37:12;7.22;;;4.05;;
7829;SDS011;3960;51.86894000;5.39848000;2022-08-21T01:39:38;8.73;;;4.65;;
7829;SDS011;3960;51.86894000;5.39848000;2022-08-21T01:42:04;8.57;;;4.40;;
7829;SDS011;3960;51.86894000;5.39848000;2022-08-21T01:44:30;7.72;;;4.80;;
7829;SDS011;3960;51.86894000;5.39848000;2022-08-21T01:46:55;9.80;;;5.30;;
7829;SDS011;3960;51.86894000;5.39848000;2022-08-21T01:49:22;6.13;;;4.88;;
7829;SDS011;3960;51.86894000;5.39848000;2022-08-21T01:51:47;10.68;;;4.95;;
7829;SDS011;3960;51.86894000;5.39848000;2022-08-21T01:54:12;7.68;;;4.82;;
7829;SDS011;3960;51.86894000;5.39848000;2022-08-21T01:56:38;10.65;;;5.70;;
7829;SDS011;3960;51.86894000;5.39848000;2022-08-21T01:59:09;8.63;;;5.40;;
7829;SDS011;3960;51.86894000;5.39848000;2022-08-21T02:01:34;11.48;;;5.47;;
7829;SDS011;3960;51.86894000;5.39848000;2022-08-21T02:04:00;9.60;;;5.40;;
7829;SDS011;3960;51.86894000;5.39848000;2022-08-21T02:06:26;9.45;;;5.38;;
7829;SDS011;3960;51.86894000;5.39848000;2022-08-21T02:08:52;11.65;;;4.97;;
7829;SDS011;3960;51.86894000;5.39848000;2022-08-21T02:11:18;8.27;;;5.20;;
7829;SDS011;3960;51.86894000;5.39848000;2022-08-21T02:13:44;7.20;;;4.80;;
7829;SDS011;3960;51.86894000;5.39848000;2022-08-21T02:16:09;10.02;;;4.95;;
7829;SDS011;3960;51.86894000;5.39848000;2022-08-21T02:18:35;7.13;;;5.05;;
7829;SDS011;3960;51.86894000;5.39848000;2022-08-21T02:21:00;7.85;;;5.30;;
7829;SDS011;3960;51.86894000;5.39848000;2022-08-21T02:23:26;8.77;;;5.30;;
7829;SDS011;3960;51.86894000;5.39848000;2022-08-21T02:25:52;9.43;;;5.18;;
7829;SDS011;3960;51.86894000;5.39848000;2022-08-21T02:28:17;10.48;;;5.60;;
7829;SDS011;3960;51.86894000;5.39848000;2022-08-21T02:30:44;8.07;;;5.00;;
7829;SDS011;3960;51.86894000;5.39848000;2022-08-21T02:33:11;15.18;;;5.78;;
7829;SDS011;3960;51.86894000;5.39848000;2022-08-21T02:35:38;10.95;;;4.93;;
7829;SDS011;3960;51.86894000;5.39848000;2022-08-21T02:38:07;10.65;;;5.07;;
7829;SDS011;3960;51.86894000;5.39848000;2022-08-21T02:40:35;10.80;;;6.43;;
7829;SDS011;3960;51.86894000;5.39848000;2022-08-21T02:43:03;8.70;;;5.32;;
7829;SDS011;3960;51.86894000;5.39848000;2022-08-21T02:45:31;8.75;;;4.90;;
7829;SDS011;3960;51.86894000;5.39848000;2022-08-21T02:47:59;9.30;;;5.55;;
7829;SDS011;3960;51.86894000;5.39848000;2022-08-21T02:50:27;12.90;;;5.65;;
7829;SDS011;3960;51.86894000;5.39848000;2022-08-21T02:55:23;10.77;;;6.57;;
7829;SDS011;3960;51.86894000;5.39848000;2022-08-21T02:57:51;9.57;;;5.70;;
7829;SDS011;3960;51.86894000;5.39848000;2022-08-21T03:00:17;12.30;;;6.25;;
7829;SDS011;3960;51.86894000;5.39848000;2022-08-21T03:02:42;11.25;;;6.53;;
7829;SDS011;3960;51.86894000;5.39848000;2022-08-21T03:05:09;11.48;;;5.68;;
7829;SDS011;3960;51.86894000;5.39848000;2022-08-21T03:07:36;14.38;;;5.78;;
7829;SDS011;3960;51.86894000;5.39848000;2022-08-21T03:10:02;10.55;;;5.18;;
7829;SDS011;3960;51.86894000;5.39848000;2022-08-21T03:12:29;10.30;;;5.88;;
7829;SDS011;3960;51.86894000;5.39848000;2022-08-21T03:14:54;12.25;;;6.10;;
7829;SDS011;3960;51.86894000;5.39848000;2022-08-21T03:17:19;10.25;;;5.45;;
7829;SDS011;3960;51.86894000;5.39848000;2022-08-21T03:19:44;13.07;;;5.70;;
7829;SDS011;3960;51.86894000;5.39848000;2022-08-21T03:22:10;10.10;;;5.55;;
7829;SDS011;3960;51.86894000;5.39848000;2022-08-21T03:24:35;11.00;;;5.35;;
7829;SDS011;3960;51.86894000;5.39848000;2022-08-21T03:27:00;10.73;;;5.47;;
7829;SDS011;3960;51.86894000;5.39848000;2022-08-21T03:29:28;12.70;;;5.57;;
7829;SDS011;3960;51.86894000;5.39848000;2022-08-21T03:31:54;12.45;;;6.05;;
7829;SDS011;3960;51.86894000;5.39848000;2022-08-21T03:34:19;11.13;;;5.97;;
7829;SDS011;3960;51.86894000;5.39848000;2022-08-21T03:36:46;9.90;;;5.72;;
7829;SDS011;3960;51.86894000;5.39848000;2022-08-21T03:39:11;10.63;;;5.60;;
7829;SDS011;3960;51.86894000;5.39848000;2022-08-21T03:41:37;9.80;;;5.40;;
7829;SDS011;3960;51.86894000;5.39848000;2022-08-21T03:44:02;12.45;;;5.60;;
7829;SDS011;3960;51.86894000;5.39848000;2022-08-21T03:46:28;16.75;;;6.10;;
7829;SDS011;3960;51.86894000;5.39848000;2022-08-21T03:48:53;11.90;;;6.22;;
7829;SDS011;3960;51.86894000;5.39848000;2022-08-21T03:51:18;10.73;;;5.65;;
7829;SDS011;3960;51.86894000;5.39848000;2022-08-21T03:53:44;12.88;;;5.65;;
7829;SDS011;3960;51.86894000;5.39848000;2022-08-21T03:56:10;15.02;;;5.43;;
7829;SDS011;3960;51.86894000;5.39848000;2022-08-21T03:58:35;7.82;;;5.28;;
7829;SDS011;3960;51.86894000;5.39848000;2022-08-21T04:01:02;12.10;;;5.45;;
7829;SDS011;3960;51.86894000;5.39848000;2022-08-21T04:03:32;11.02;;;6.25;;
7829;SDS011;3960;51.86894000;5.39848000;2022-08-21T04:06:00;13.40;;;5.63;;
7829;SDS011;3960;51.86894000;5.39848000;2022-08-21T04:08:25;9.73;;;5.72;;
7829;SDS011;3960;51.86894000;5.39848000;2022-08-21T04:10:51;10.18;;;5.95;;
7829;SDS011;3960;51.86894000;5.39848000;2022-08-21T04:13:18;10.48;;;5.43;;
7829;SDS011;3960;51.86894000;5.39848000;2022-08-21T04:15:44;11.18;;;5.80;;
7829;SDS011;3960;51.86894000;5.39848000;2022-08-21T04:18:10;12.15;;;5.95;;
7829;SDS011;3960;51.86894000;5.39848000;2022-08-21T04:20:35;8.80;;;5.78;;
7829;SDS011;3960;51.86894000;5.39848000;2022-08-21T04:23:01;11.45;;;5.60;;
7829;SDS011;3960;51.86894000;5.39848000;2022-08-21T04:25:27;10.63;;;5.68;;
7829;SDS011;3960;51.86894000;5.39848000;2022-08-21T04:27:53;9.38;;;5.57;;
7829;SDS011;3960;51.86894000;5.39848000;2022-08-21T04:30:19;11.23;;;6.43;;
7829;SDS011;3960;51.86894000;5.39848000;2022-08-21T04:32:45;9.45;;;5.25;;
7829;SDS011;3960;51.86894000;5.39848000;2022-08-21T04:35:12;14.30;;;6.40;;
7829;SDS011;3960;51.86894000;5.39848000;2022-08-21T04:37:39;10.98;;;6.30;;
7829;SDS011;3960;51.86894000;5.39848000;2022-08-21T04:40:05;11.68;;;6.35;;
7829;SDS011;3960;51.86894000;5.39848000;2022-08-21T04:42:32;14.73;;;6.38;;
7829;SDS011;3960;51.86894000;5.39848000;2022-08-21T04:44:57;14.82;;;6.25;;
7829;SDS011;3960;51.86894000;5.39848000;2022-08-21T04:47:23;23.00;;;6.95;;
7829;SDS011;3960;51.86894000;5.39848000;2022-08-21T04:49:48;11.93;;;6.20;;
7829;SDS011;3960;51.86894000;5.39848000;2022-08-21T04:52:15;9.20;;;6.15;;
7829;SDS011;3960;51.86894000;5.39848000;2022-08-21T04:54:44;12.75;;;6.15;;
7829;SDS011;3960;51.86894000;5.39848000;2022-08-21T04:57:11;12.15;;;6.20;;
7829;SDS011;3960;51.86894000;5.39848000;2022-08-21T04:59:41;12.90;;;6.65;;
7829;SDS011;3960;51.86894000;5.39848000;2022-08-21T05:02:09;12.88;;;6.10;;
7829;SDS011;3960;51.86894000;5.39848000;2022-08-21T05:04:36;11.57;;;6.55;;
7829;SDS011;3960;51.86894000;5.39848000;2022-08-21T05:07:09;13.30;;;6.22;;
7829;SDS011;3960;51.86894000;5.39848000;2022-08-21T05:09:37;14.80;;;7.05;;
7829;SDS011;3960;51.86894000;5.39848000;2022-08-21T05:12:03;12.93;;;6.65;;
7829;SDS011;3960;51.86894000;5.39848000;2022-08-21T05:14:29;14.93;;;7.13;;
7829;SDS011;3960;51.86894000;5.39848000;2022-08-21T05:16:55;17.33;;;7.20;;
7829;SDS011;3960;51.86894000;5.39848000;2022-08-21T05:19:20;13.43;;;6.63;;
7829;SDS011;3960;51.86894000;5.39848000;2022-08-21T05:21:46;11.93;;;6.68;;
7829;SDS011;3960;51.86894000;5.39848000;2022-08-21T05:24:12;14.35;;;7.25;;
7829;SDS011;3960;51.86894000;5.39848000;2022-08-21T05:26:38;16.80;;;7.05;;
7829;SDS011;3960;51.86894000;5.39848000;2022-08-21T05:29:03;15.50;;;7.28;;
7829;SDS011;3960;51.86894000;5.39848000;2022-08-21T05:31:29;14.57;;;7.32;;
7829;SDS011;3960;51.86894000;5.39848000;2022-08-21T05:33:54;17.58;;;7.68;;
7829;SDS011;3960;51.86894000;5.39848000;2022-08-21T05:36:20;12.52;;;7.15;;
7829;SDS011;3960;51.86894000;5.39848000;2022-08-21T05:38:45;17.55;;;7.63;;
7829;SDS011;3960;51.86894000;5.39848000;2022-08-21T05:41:11;16.50;;;8.15;;
7829;SDS011;3960;51.86894000;5.39848000;2022-08-21T05:43:37;17.98;;;7.72;;
7829;SDS011;3960;51.86894000;5.39848000;2022-08-21T05:46:03;22.17;;;7.72;;
7829;SDS011;3960;51.86894000;5.39848000;2022-08-21T05:48:29;15.40;;;7.60;;
7829;SDS011;3960;51.86894000;5.39848000;2022-08-21T05:50:55;14.45;;;7.85;;
7829;SDS011;3960;51.86894000;5.39848000;2022-08-21T05:53:22;17.92;;;7.80;;
7829;SDS011;3960;51.86894000;5.39848000;2022-08-21T05:55:49;17.40;;;7.63;;
7829;SDS011;3960;51.86894000;5.39848000;2022-08-21T05:58:16;16.60;;;7.22;;
7829;SDS011;3960;51.86894000;5.39848000;2022-08-21T06:00:44;13.00;;;6.57;;
7829;SDS011;3960;51.86894000;5.39848000;2022-08-21T06:03:13;13.88;;;6.00;;
7829;SDS011;3960;51.86894000;5.39848000;2022-08-21T06:05:41;12.77;;;5.82;;
7829;SDS011;3960;51.86894000;5.39848000;2022-08-21T06:08:07;12.45;;;5.22;;
7829;SDS011;3960;51.86894000;5.39848000;2022-08-21T06:10:32;10.00;;;5.30;;
7829;SDS011;3960;51.86894000;5.39848000;2022-08-21T06:12:58;11.55;;;4.80;;
7829;SDS011;3960;51.86894000;5.39848000;2022-08-21T06:15:23;10.65;;;5.10;;
7829;SDS011;3960;51.86894000;5.39848000;2022-08-21T06:17:48;12.27;;;4.93;;
7829;SDS011;3960;51.86894000;5.39848000;2022-08-21T06:20:14;8.32;;;4.55;;
7829;SDS011;3960;51.86894000;5.39848000;2022-08-21T06:22:39;8.77;;;4.47;;
7829;SDS011;3960;51.86894000;5.39848000;2022-08-21T06:25:04;10.02;;;4.90;;
7829;SDS011;3960;51.86894000;5.39848000;2022-08-21T06:27:30;10.38;;;4.57;;
7829;SDS011;3960;51.86894000;5.39848000;2022-08-21T06:29:55;14.90;;;5.30;;
7829;SDS011;3960;51.86894000;5.39848000;2022-08-21T06:32:22;16.45;;;5.00;;
7829;SDS011;3960;51.86894000;5.39848000;2022-08-21T06:34:47;9.90;;;5.07;;
7829;SDS011;3960;51.86894000;5.39848000;2022-08-21T06:37:13;12.18;;;5.20;;
7829;SDS011;3960;51.86894000;5.39848000;2022-08-21T06:39:38;8.95;;;5.18;;
7829;SDS011;3960;51.86894000;5.39848000;2022-08-21T06:42:04;12.68;;;5.30;;
7829;SDS011;3960;51.86894000;5.39848000;2022-08-21T06:44:30;12.52;;;5.00;;
7829;SDS011;3960;51.86894000;5.39848000;2022-08-21T06:46:55;11.52;;;4.80;;
7829;SDS011;3960;51.86894000;5.39848000;2022-08-21T06:49:20;17.02;;;4.85;;
7829;SDS011;3960;51.86894000;5.39848000;2022-08-21T06:51:46;10.00;;;4.75;;
7829;SDS011;3960;51.86894000;5.39848000;2022-08-21T06:54:11;13.13;;;4.75;;
7829;SDS011;3960;51.86894000;5.39848000;2022-08-21T06:56:36;13.20;;;4.90;;
7829;SDS011;3960;51.86894000;5.39848000;2022-08-21T06:59:03;11.90;;;5.35;;
7829;SDS011;3960;51.86894000;5.39848000;2022-08-21T07:01:30;8.93;;;5.05;;
7829;SDS011;3960;51.86894000;5.39848000;2022-08-21T07:03:55;14.07;;;4.43;;
7829;SDS011;3960;51.86894000;5.39848000;2022-08-21T07:06:20;9.32;;;5.10;;
7829;SDS011;3960;51.86894000;5.39848000;2022-08-21T07:08:46;11.60;;;4.97;;
7829;SDS011;3960;51.86894000;5.39848000;2022-08-21T07:11:12;14.82;;;4.57;;
7829;SDS011;3960;51.86894000;5.39848000;2022-08-21T07:13:42;13.52;;;4.65;;
7829;SDS011;3960;51.86894000;5.39848000;2022-08-21T07:16:07;16.58;;;5.30;;
7829;SDS011;3960;51.86894000;5.39848000;2022-08-21T07:18:33;9.63;;;4.63;;
7829;SDS011;3960;51.86894000;5.39848000;2022-08-21T07:21:00;12.32;;;4.55;;
7829;SDS011;3960;51.86894000;5.39848000;2022-08-21T07:23:29;11.40;;;4.55;;
7829;SDS011;3960;51.86894000;5.39848000;2022-08-21T07:25:56;11.70;;;4.53;;
7829;SDS011;3960;51.86894000;5.39848000;2022-08-21T07:28:22;8.90;;;4.00;;
7829;SDS011;3960;51.86894000;5.39848000;2022-08-21T07:30:50;9.15;;;3.75;;
7829;SDS011;3960;51.86894000;5.39848000;2022-08-21T07:33:17;14.45;;;4.82;;
7829;SDS011;3960;51.86894000;5.39848000;2022-08-21T07:35:43;9.93;;;4.28;;
7829;SDS011;3960;51.86894000;5.39848000;2022-08-21T07:38:08;11.35;;;4.25;;
7829;SDS011;3960;51.86894000;5.39848000;2022-08-21T07:40:33;12.27;;;4.82;;
7829;SDS011;3960;51.86894000;5.39848000;2022-08-21T07:42:59;12.18;;;4.20;;
7829;SDS011;3960;51.86894000;5.39848000;2022-08-21T07:45:24;11.00;;;4.07;;
7829;SDS011;3960;51.86894000;5.39848000;2022-08-21T07:47:51;15.18;;;4.22;;
7829;SDS011;3960;51.86894000;5.39848000;2022-08-21T07:50:16;13.57;;;4.65;;
7829;SDS011;3960;51.86894000;5.39848000;2022-08-21T07:52:43;10.80;;;3.60;;
7829;SDS011;3960;51.86894000;5.39848000;2022-08-21T07:55:09;9.55;;;3.72;;
7829;SDS011;3960;51.86894000;5.39848000;2022-08-21T07:57:36;12.07;;;3.72;;
7829;SDS011;3960;51.86894000;5.39848000;2022-08-21T08:00:06;15.85;;;4.35;;
7829;SDS011;3960;51.86894000;5.39848000;2022-08-21T08:02:34;10.65;;;3.55;;
7829;SDS011;3960;51.86894000;5.39848000;2022-08-21T08:05:00;18.33;;;3.90;;
7829;SDS011;3960;51.86894000;5.39848000;2022-08-21T08:07:27;12.25;;;4.38;;
7829;SDS011;3960;51.86894000;5.39848000;2022-08-21T08:09:52;9.93;;;3.53;;
7829;SDS011;3960;51.86894000;5.39848000;2022-08-21T08:12:18;9.75;;;3.42;;
7829;SDS011;3960;51.86894000;5.39848000;2022-08-21T08:14:43;16.85;;;3.80;;
7829;SDS011;3960;51.86894000;5.39848000;2022-08-21T08:17:08;9.75;;;3.38;;
7829;SDS011;3960;51.86894000;5.39848000;2022-08-21T08:19:34;10.60;;;3.53;;
7829;SDS011;3960;51.86894000;5.39848000;2022-08-21T08:21:59;13.38;;;3.50;;
7829;SDS011;3960;51.86894000;5.39848000;2022-08-21T08:24:25;16.83;;;4.35;;
7829;SDS011;3960;51.86894000;5.39848000;2022-08-21T08:26:50;12.57;;;3.50;;
7829;SDS011;3960;51.86894000;5.39848000;2022-08-21T08:29:15;16.10;;;4.07;;
7829;SDS011;3960;51.86894000;5.39848000;2022-08-21T08:31:41;10.15;;;3.33;;
7829;SDS011;3960;51.86894000;5.39848000;2022-08-21T08:34:06;11.30;;;4.03;;
7829;SDS011;3960;51.86894000;5.39848000;2022-08-21T08:36:32;13.35;;;3.75;;
7829;SDS011;3960;51.86894000;5.39848000;2022-08-21T08:38:59;12.43;;;3.63;;
7829;SDS011;3960;51.86894000;5.39848000;2022-08-21T08:41:28;12.73;;;3.25;;
7829;SDS011;3960;51.86894000;5.39848000;2022-08-21T08:43:57;13.32;;;3.60;;
7829;SDS011;3960;51.86894000;5.39848000;2022-08-21T08:46:31;13.68;;;3.58;;
7829;SDS011;3960;51.86894000;5.39848000;2022-08-21T08:49:08;15.07;;;3.53;;
7829;SDS011;3960;51.86894000;5.39848000;2022-08-21T08:56:56;12.48;;;3.58;;
7829;SDS011;3960;51.86894000;5.39848000;2022-08-21T08:59:26;16.00;;;4.25;;
7829;SDS011;3960;51.86894000;5.39848000;2022-08-21T09:01:55;9.93;;;3.10;;
7829;SDS011;3960;51.86894000;5.39848000;2022-08-21T09:04:23;15.15;;;3.78;;
7829;SDS011;3960;51.86894000;5.39848000;2022-08-21T09:06:58;13.50;;;3.60;;
7829;SDS011;3960;51.86894000;5.39848000;2022-08-21T09:26:47;8.35;;;3.03;;
7829;SDS011;3960;51.86894000;5.39848000;2022-08-21T09:29:20;10.38;;;2.80;;
7829;SDS011;3960;51.86894000;5.39848000;2022-08-21T09:31:49;10.38;;;3.08;;
7829;SDS011;3960;51.86894000;5.39848000;2022-08-21T09:34:23;12.73;;;3.33;;
7829;SDS011;3960;51.86894000;5.39848000;2022-08-21T09:36:52;13.30;;;3.53;;
7829;SDS011;3960;51.86894000;5.39848000;2022-08-21T09:39:31;10.07;;;3.10;;
7829;SDS011;3960;51.86894000;5.39848000;2022-08-21T09:42:06;10.57;;;2.92;;
7829;SDS011;3960;51.86894000;5.39848000;2022-08-21T09:47:04;14.23;;;2.80;;
7829;SDS011;3960;51.86894000;5.39848000;2022-08-21T09:49:34;8.43;;;2.80;;
7829;SDS011;3960;51.86894000;5.39848000;2022-08-21T09:54:31;8.45;;;2.58;;
7829;SDS011;3960;51.86894000;5.39848000;2022-08-21T09:59:52;8.82;;;2.72;;
7829;SDS011;3960;51.86894000;5.39848000;2022-08-21T10:02:22;9.50;;;2.63;;
7829;SDS011;3960;51.86894000;5.39848000;2022-08-21T10:04:52;9.77;;;2.60;;
7829;SDS011;3960;51.86894000;5.39848000;2022-08-21T10:07:21;11.18;;;3.30;;
7829;SDS011;3960;51.86894000;5.39848000;2022-08-21T10:10:03;7.43;;;2.60;;
7829;SDS011;3960;51.86894000;5.39848000;2022-08-21T10:18:24;9.93;;;2.42;;
7829;SDS011;3960;51.86894000;5.39848000;2022-08-21T10:21:01;10.77;;;2.60;;
7829;SDS011;3960;51.86894000;5.39848000;2022-08-21T10:28:37;9.48;;;2.72;;
7829;SDS011;3960;51.86894000;5.39848000;2022-08-21T10:31:14;8.98;;;2.58;;
7829;SDS011;3960;51.86894000;5.39848000;2022-08-21T10:36:33;6.93;;;2.53;;
7829;SDS011;3960;51.86894000;5.39848000;2022-08-21T10:44:44;10.70;;;2.33;;
7829;SDS011;3960;51.86894000;5.39848000;2022-08-21T10:47:13;8.93;;;2.28;;
7829;SDS011;3960;51.86894000;5.39848000;2022-08-21T10:52:56;9.40;;;2.65;;
7829;SDS011;3960;51.86894000;5.39848000;2022-08-21T10:55:48;8.18;;;2.50;;
7829;SDS011;3960;51.86894000;5.39848000;2022-08-21T10:58:30;7.45;;;2.60;;
7829;SDS011;3960;51.86894000;5.39848000;2022-08-21T11:01:03;4.85;;;2.03;;
7829;SDS011;3960;51.86894000;5.39848000;2022-08-21T11:06:50;6.15;;;2.58;;
7829;SDS011;3960;51.86894000;5.39848000;2022-08-21T11:09:22;8.02;;;2.40;;
7829;SDS011;3960;51.86894000;5.39848000;2022-08-21T11:12:05;6.47;;;2.00;;
7829;SDS011;3960;51.86894000;5.39848000;2022-08-21T11:17:07;7.70;;;2.20;;
7829;SDS011;3960;51.86894000;5.39848000;2022-08-21T11:24:44;7.38;;;1.77;;
7829;SDS011;3960;51.86894000;5.39848000;2022-08-21T11:27:50;6.40;;;2.10;;
7829;SDS011;3960;51.86894000;5.39848000;2022-08-21T11:30:20;8.40;;;2.13;;
7829;SDS011;3960;51.86894000;5.39848000;2022-08-21T11:35:19;7.72;;;2.45;;
7829;SDS011;3960;51.86894000;5.39848000;2022-08-21T11:43:09;5.35;;;2.15;;
7829;SDS011;3960;51.86894000;5.39848000;2022-08-21T11:45:47;5.68;;;1.83;;
7829;SDS011;3960;51.86894000;5.39848000;2022-08-21T11:51:13;6.88;;;2.00;;
7829;SDS011;3960;51.86894000;5.39848000;2022-08-21T11:58:53;5.60;;;1.80;;
7829;SDS011;3960;51.86894000;5.39848000;2022-08-21T12:01:23;6.60;;;2.08;;
7829;SDS011;3960;51.86894000;5.39848000;2022-08-21T12:03:57;5.38;;;1.95;;
7829;SDS011;3960;51.86894000;5.39848000;2022-08-21T12:07:08;8.05;;;1.95;;
7829;SDS011;3960;51.86894000;5.39848000;2022-08-21T12:12:12;5.97;;;2.03;;
7829;SDS011;3960;51.86894000;5.39848000;2022-08-21T12:17:08;8.73;;;2.30;;
7829;SDS011;3960;51.86894000;5.39848000;2022-08-21T12:19:42;5.10;;;2.00;;
7829;SDS011;3960;51.86894000;5.39848000;2022-08-21T12:22:10;4.68;;;1.65;;
7829;SDS011;3960;51.86894000;5.39848000;2022-08-21T12:24:39;4.38;;;1.70;;
7829;SDS011;3960;51.86894000;5.39848000;2022-08-21T12:29:59;4.85;;;1.70;;
7829;SDS011;3960;51.86894000;5.39848000;2022-08-21T12:32:28;5.18;;;1.60;;
7829;SDS011;3960;51.86894000;5.39848000;2022-08-21T12:37:46;5.10;;;1.85;;
7829;SDS011;3960;51.86894000;5.39848000;2022-08-21T12:42:59;4.65;;;1.80;;
7829;SDS011;3960;51.86894000;5.39848000;2022-08-21T12:47:59;8.80;;;2.22;;
7829;SDS011;3960;51.86894000;5.39848000;2022-08-21T12:50:36;8.80;;;1.90;;
7829;SDS011;3960;51.86894000;5.39848000;2022-08-21T12:53:07;7.30;;;1.95;;
7829;SDS011;3960;51.86894000;5.39848000;2022-08-21T12:55:40;5.65;;;1.70;;
7829;SDS011;3960;51.86894000;5.39848000;2022-08-21T12:58:06;6.25;;;1.98;;
7829;SDS011;3960;51.86894000;5.39848000;2022-08-21T13:00:44;9.30;;;2.20;;
7829;SDS011;3960;51.86894000;5.39848000;2022-08-21T13:03:14;3.33;;;1.60;;
7829;SDS011;3960;51.86894000;5.39848000;2022-08-21T13:05:40;4.95;;;1.85;;
7829;SDS011;3960;51.86894000;5.39848000;2022-08-21T13:08:06;8.52;;;2.00;;
7829;SDS011;3960;51.86894000;5.39848000;2022-08-21T13:10:34;5.95;;;1.80;;
7829;SDS011;3960;51.86894000;5.39848000;2022-08-21T13:13:05;5.63;;;2.10;;
7829;SDS011;3960;51.86894000;5.39848000;2022-08-21T13:15:34;6.40;;;2.00;;
7829;SDS011;3960;51.86894000;5.39848000;2022-08-21T13:18:01;8.95;;;1.75;;
7829;SDS011;3960;51.86894000;5.39848000;2022-08-21T13:20:29;5.85;;;1.80;;
7829;SDS011;3960;51.86894000;5.39848000;2022-08-21T13:23:03;7.72;;;1.80;;
7829;SDS011;3960;51.86894000;5.39848000;2022-08-21T13:25:43;5.30;;;1.90;;
7829;SDS011;3960;51.86894000;5.39848000;2022-08-21T13:28:09;5.13;;;2.00;;
7829;SDS011;3960;51.86894000;5.39848000;2022-08-21T13:30:44;3.95;;;1.60;;
7829;SDS011;3960;51.86894000;5.39848000;2022-08-21T13:33:12;6.30;;;1.95;;
7829;SDS011;3960;51.86894000;5.39848000;2022-08-21T13:38:22;10.50;;;2.10;;
7829;SDS011;3960;51.86894000;5.39848000;2022-08-21T13:40:56;8.18;;;1.98;;
7829;SDS011;3960;51.86894000;5.39848000;2022-08-21T13:43:27;6.30;;;1.63;;
7829;SDS011;3960;51.86894000;5.39848000;2022-08-21T13:45:56;5.28;;;1.70;;
7829;SDS011;3960;51.86894000;5.39848000;2022-08-21T13:48:24;6.75;;;1.65;;
7829;SDS011;3960;51.86894000;5.39848000;2022-08-21T13:50:52;5.07;;;1.60;;
7829;SDS011;3960;51.86894000;5.39848000;2022-08-21T13:53:21;8.65;;;2.15;;
7829;SDS011;3960;51.86894000;5.39848000;2022-08-21T13:55:56;5.85;;;1.83;;
7829;SDS011;3960;51.86894000;5.39848000;2022-08-21T13:58:27;6.85;;;2.05;;
7829;SDS011;3960;51.86894000;5.39848000;2022-08-21T14:00:53;6.43;;;1.75;;
7829;SDS011;3960;51.86894000;5.39848000;2022-08-21T14:03:54;7.82;;;1.70;;
7829;SDS011;3960;51.86894000;5.39848000;2022-08-21T14:06:21;4.90;;;1.90;;
7829;SDS011;3960;51.86894000;5.39848000;2022-08-21T14:08:53;6.00;;;2.00;;
7829;SDS011;3960;51.86894000;5.39848000;2022-08-21T14:11:21;5.25;;;1.85;;
7829;SDS011;3960;51.86894000;5.39848000;2022-08-21T14:16:20;6.10;;;1.70;;
7829;SDS011;3960;51.86894000;5.39848000;2022-08-21T14:21:36;6.55;;;2.22;;
7829;SDS011;3960;51.86894000;5.39848000;2022-08-21T14:24:08;6.70;;;2.10;;
7829;SDS011;3960;51.86894000;5.39848000;2022-08-21T14:26:46;5.15;;;2.00;;
7829;SDS011;3960;51.86894000;5.39848000;2022-08-21T14:29:16;5.53;;;2.08;;
7829;SDS011;3960;51.86894000;5.39848000;2022-08-21T14:31:48;5.35;;;2.60;;
7829;SDS011;3960;51.86894000;5.39848000;2022-08-21T14:34:15;5.57;;;1.75;;
7829;SDS011;3960;51.86894000;5.39848000;2022-08-21T14:36:42;6.13;;;1.55;;
7829;SDS011;3960;51.86894000;5.39848000;2022-08-21T14:39:08;7.10;;;2.33;;
7829;SDS011;3960;51.86894000;5.39848000;2022-08-21T14:41:34;5.07;;;1.88;;
7829;SDS011;3960;51.86894000;5.39848000;2022-08-21T14:44:01;6.30;;;1.75;;
7829;SDS011;3960;51.86894000;5.39848000;2022-08-21T14:46:29;5.75;;;1.50;;
7829;SDS011;3960;51.86894000;5.39848000;2022-08-21T14:48:55;6.90;;;1.83;;
7829;SDS011;3960;51.86894000;5.39848000;2022-08-21T14:51:21;5.32;;;1.80;;
7829;SDS011;3960;51.86894000;5.39848000;2022-08-21T14:53:46;5.88;;;1.92;;
7829;SDS011;3960;51.86894000;5.39848000;2022-08-21T14:56:13;3.13;;;1.60;;
7829;SDS011;3960;51.86894000;5.39848000;2022-08-21T14:58:41;7.65;;;2.00;;